Time;durP1;ratioP1;P1;durP2;ratioP2;P2;SDS_P1;SDS_P2;PMS_P1;PMS_P2;Temp;Humidity;BMP_temperature;BMP_pressure;BME280_temperature;BME280_humidity;BME280_pressure;Samples;Min_cycle;Max_cycle;Signal;HPM_P1;HPM_P2
2023/02/17 00:01:19;;;;;;;;;5.25;2.00;;;;;13.41;100.00;102315.41;5038018;28;45651;-77
2023/02/17 00:03:48;;;;;;;;;5.50;3.00;;;;;13.41;100.00;102313.69;5020037;28;45346;-78
2023/02/17 00:06:16;;;;;;;;;5.25;3.00;;;;;13.40;100.00;102314.56;5037873;28;45399;-77
2023/02/17 00:08:42;;;;;;;;;6.50;2.00;;;;;13.38;100.00;102311.13;5019915;28;45722;-77
2023/02/17 00:11:07;;;;;;;;;7.50;4.00;;;;;13.36;100.00;102308.50;5020101;28;45419;-78
2023/02/17 00:13:33;;;;;;;;;6.00;4.00;;;;;13.35;100.00;102311.16;5019254;28;51580;-77
2023/02/17 00:15:58;;;;;;;;;3.75;3.75;;;;;13.38;100.00;102305.03;5037614;28;48903;-77
2023/02/17 00:18:24;;;;;;;;;3.75;2.50;;;;;13.36;100.00;102303.28;5037685;28;45391;-76
2023/02/17 00:20:49;;;;;;;;;3.00;2.25;;;;;13.32;100.00;102300.75;5037694;28;45454;-77
2023/02/17 00:23:15;;;;;;;;;4.75;3.00;;;;;13.31;100.00;102307.72;5037779;28;45367;-77
2023/02/17 00:25:40;;;;;;;;;5.75;3.00;;;;;13.29;100.00;102301.63;5037441;28;47477;-77
2023/02/17 00:28:06;;;;;;;;;3.25;3.25;;;;;13.32;100.00;102306.00;5037186;28;45306;-77
2023/02/17 00:30:31;;;;;;;;;5.50;3.00;;;;;13.33;100.00;102310.31;5019750;28;45420;-77
2023/02/17 00:32:58;;;;;;;;;4.00;1.75;;;;;13.33;100.00;102307.69;5019813;28;45333;-76
2023/02/17 00:35:23;;;;;;;;;4.75;3.00;;;;;13.33;100.00;102300.75;5019138;28;47256;-76
2023/02/17 00:37:49;;;;;;;;;5.25;4.00;;;;;13.36;100.00;102300.66;5036589;28;45395;-77
2023/02/17 00:40:14;;;;;;;;;5.00;4.00;;;;;13.38;100.00;102310.25;5036001;28;50064;-77
2023/02/17 00:42:40;;;;;;;;;6.00;3.00;;;;;13.39;100.00;102304.13;5036352;28;55775;-77
2023/02/17 00:45:06;;;;;;;;;1.00;0.00;;;;;13.34;100.00;102286.75;5037359;28;46075;-76
2023/02/17 00:47:31;;;;;;;;;5.50;3.50;;;;;13.41;100.00;102297.09;5037146;28;45338;-76
2023/02/17 00:49:57;;;;;;;;;3.25;3.25;;;;;13.42;100.00;102291.84;5037441;28;45298;-77
2023/02/17 00:52:22;;;;;;;;;3.50;3.00;;;;;13.42;100.00;102291.84;5036895;28;54853;-76
2023/02/17 00:54:47;;;;;;;;;5.00;3.25;;;;;13.39;100.00;102297.16;5036676;28;45354;-77
2023/02/17 00:57:13;;;;;;;;;6.75;3.00;;;;;13.39;100.00;102293.66;5036409;28;45435;-76
2023/02/17 00:59:38;;;;;;;;;2.00;2.00;;;;;13.42;100.00;102296.25;5036559;28;52732;-76
2023/02/17 01:02:04;;;;;;;;;7.25;4.00;;;;;13.40;100.00;102288.41;5036374;28;55605;-76
2023/02/17 01:04:29;;;;;;;;;5.25;3.50;;;;;13.43;100.00;102298.84;5036323;28;61173;-76
2023/02/17 01:06:54;;;;;;;;;2.75;2.75;;;;;13.42;100.00;102301.47;5043862;28;56031;-76
2023/02/17 01:09:20;;;;;;;;;8.25;3.75;;;;;13.38;100.00;102294.56;5046012;28;46214;-76
2023/02/17 01:11:45;;;;;;;;;4.00;3.00;;;;;13.37;100.00;102296.28;5036699;28;53875;-77
2023/02/17 01:14:12;;;;;;;;;5.25;4.00;;;;;13.42;100.00;102304.94;5036454;28;60589;-76
2023/02/17 01:16:38;;;;;;;;;4.75;3.00;;;;;13.38;100.00;102290.19;5037122;28;45809;-76
2023/02/17 01:19:10;;;;;;;;;5.50;3.00;;;;;13.35;100.00;102285.00;5036892;28;45509;-76
2023/02/17 01:21:36;;;;;;;;;5.25;3.00;;;;;13.36;100.00;102298.06;5019027;28;45309;-77
2023/02/17 01:24:04;;;;;;;;;3.00;2.75;;;;;13.35;100.00;102290.22;5035861;28;46079;-76
2023/02/17 01:26:31;;;;;;;;;5.00;3.75;;;;;13.38;100.00;102287.56;5036372;28;45351;-76
2023/02/17 01:28:57;;;;;;;;;7.00;5.25;;;;;13.38;100.00;102278.88;5018816;28;45350;-76
2023/02/17 01:31:23;;;;;;;;;4.00;4.00;;;;;13.38;100.00;102282.34;5036773;28;45288;-76
2023/02/17 01:33:48;;;;;;;;;5.25;4.00;;;;;13.37;100.00;102283.22;5036492;28;46232;-76
2023/02/17 01:36:16;;;;;;;;;8.25;3.50;;;;;13.35;100.00;102272.81;5018742;28;45384;-76
2023/02/17 01:38:42;;;;;;;;;3.75;3.00;;;;;13.31;100.00;102273.72;5036576;28;45533;-76
2023/02/17 01:41:08;;;;;;;;;7.00;3.00;;;;;13.34;100.00;102281.53;5018407;28;45381;-76
2023/02/17 01:43:34;;;;;;;;;10.25;3.00;;;;;13.36;100.00;102278.88;5018434;28;45499;-76
2023/02/17 01:46:01;;;;;;;;;7.00;4.00;;;;;13.31;100.00;102286.78;5036017;28;45478;-77
2023/02/17 01:48:33;;;;;;;;;5.75;4.00;;;;;13.29;100.00;102278.06;5018206;28;45384;-76
2023/02/17 01:51:05;;;;;;;;;7.50;3.00;;;;;13.31;100.00;102286.78;5018537;28;45364;-77
2023/02/17 01:53:34;;;;;;;;;4.00;3.50;;;;;13.31;100.00;102285.94;5018344;28;46578;-76
2023/02/17 01:56:00;;;;;;;;;6.25;4.00;;;;;13.28;100.00;102281.59;5018233;28;45784;-77
2023/02/17 01:58:27;;;;;;;;;5.75;4.00;;;;;13.29;100.00;102290.31;5036117;28;45474;-77
2023/02/17 02:00:54;;;;;;;;;6.25;3.00;;;;;13.23;100.00;102277.34;5018159;28;45411;-76
2023/02/17 02:03:19;;;;;;;;;6.50;6.00;;;;;13.24;100.00;102279.94;5017937;28;46480;-77
2023/02/17 02:05:45;;;;;;;;;5.00;3.75;;;;;13.22;100.00;102279.06;5018154;28;45465;-77
2023/02/17 02:08:12;;;;;;;;;5.25;3.00;;;;;13.20;100.00;102270.38;5017218;28;67900;-77
2023/02/17 02:10:38;;;;;;;;;8.50;5.75;;;;;13.13;100.00;102268.75;5034894;28;61840;-77
2023/02/17 02:13:03;;;;;;;;;2.75;1.00;;;;;13.15;100.00;102273.06;5018065;28;47205;-77
2023/02/17 02:15:34;;;;;;;;;10.00;5.25;;;;;13.16;100.00;102276.53;5035055;28;64701;-77
2023/02/17 02:18:29;;;;;;;;;4.75;4.00;;;;;13.09;100.00;102267.94;5017872;28;45343;-77
2023/02/17 02:21:06;;;;;;;;;8.00;5.00;;;;;13.09;100.00;102267.94;5035898;28;45391;-77
2023/02/17 02:23:37;;;;;;;;;7.75;7.00;;;;;13.10;100.00;102267.03;5035168;28;45378;-77
2023/02/17 02:26:18;;;;;;;;;7.50;4.25;;;;;13.12;100.00;102270.50;5035537;28;45725;-77
2023/02/17 02:29:00;;;;;;;;;3.50;2.25;;;;;13.05;100.00;102260.16;5035641;28;45273;-76
2023/02/17 02:31:45;;;;;;;;;11.50;5.50;;;;;13.15;100.00;102269.59;5035823;28;45488;-77
2023/02/17 02:34:25;;;;;;;;;8.25;7.50;;;;;13.14;100.00;102266.09;5017647;28;46442;-77
2023/02/17 02:36:55;;;;;;;;;14.25;7.00;;;;;13.11;100.00;102263.56;5017622;28;45366;-77
2023/02/17 02:39:25;;;;;;;;;8.75;6.00;;;;;13.14;100.00;102260.03;5017476;28;45424;-77
2023/02/17 02:41:58;;;;;;;;;5.00;4.25;;;;;13.15;100.00;102262.63;5035474;28;45405;-76
2023/02/17 02:44:23;;;;;;;;;7.00;5.00;;;;;13.16;100.00;102259.09;5017320;28;46367;-77
2023/02/17 02:47:03;;;;;;;;;7.00;5.00;;;;;13.15;100.00;102259.16;5017690;28;45376;-77
2023/02/17 02:49:30;;;;;;;;;6.25;5.75;;;;;13.14;100.00;102258.25;5035438;28;45518;-77
2023/02/17 02:52:18;;;;;;;;;8.00;5.25;;;;;13.19;100.00;102263.44;5035387;28;45453;-77
2023/02/17 02:55:11;;;;;;;;;6.00;5.00;;;;;13.20;100.00;102265.16;5017153;28;46242;-77
2023/02/17 02:58:00;;;;;;;;;8.50;4.00;;;;;13.16;100.00;102264.31;5021828;28;45811;-77
2023/02/17 03:00:39;;;;;;;;;8.50;7.00;;;;;13.13;100.00;102263.50;5029788;28;45445;-77
2023/02/17 03:03:19;;;;;;;;;7.50;6.00;;;;;13.12;100.00;102261.81;5021709;28;45403;-77
2023/02/17 03:06:21;;;;;;;;;8.50;6.00;;;;;13.07;100.00;102256.63;5021475;28;46604;-77
2023/02/17 03:09:01;;;;;;;;;10.50;7.00;;;;;13.07;100.00;102254.00;5020911;28;45612;-77
2023/02/17 03:11:32;;;;;;;;;8.75;4.50;;;;;13.09;100.00;102249.66;5039192;28;45422;-77
2023/02/17 03:14:10;;;;;;;;;10.25;3.75;;;;;13.13;100.00;102253.06;5022206;28;45375;-76
2023/02/17 03:16:37;;;;;;;;;6.00;6.00;;;;;13.12;100.00;102246.97;5038965;28;47012;-77
2023/02/17 03:19:03;;;;;;;;;8.75;6.25;;;;;13.15;100.00;102251.31;5021236;28;45383;-77
2023/02/17 03:21:35;;;;;;;;;7.50;6.50;;;;;13.12;100.00;102248.72;5021080;28;45360;-76
2023/02/17 03:24:00;;;;;;;;;9.00;4.50;;;;;13.08;100.00;102237.44;5038573;28;45498;-76
2023/02/17 03:26:25;;;;;;;;;8.25;6.25;;;;;13.10;100.00;102245.28;5038051;28;74820;-78
2023/02/17 03:28:51;;;;;;;;;7.00;6.50;;;;;13.08;100.00;102239.22;5019968;28;69941;-77
2023/02/17 03:31:16;;;;;;;;;4.00;4.00;;;;;13.09;100.00;102243.53;5038206;28;64475;-78
2023/02/17 03:33:41;;;;;;;;;4.50;4.50;;;;;13.11;100.00;102250.50;5038681;28;45519;-77
2023/02/17 03:36:09;;;;;;;;;10.00;7.00;;;;;13.11;100.00;102245.25;5037118;28;73288;-78
2023/02/17 03:38:34;;;;;;;;;6.00;5.75;;;;;13.14;100.00;102255.66;5038506;28;46223;-78
2023/02/17 03:41:00;;;;;;;;;7.25;4.00;;;;;13.13;100.00;102258.28;5037853;28;64862;-78
2023/02/17 03:43:25;;;;;;;;;8.00;6.25;;;;;13.14;100.00;102257.41;5037526;28;66900;-77
2023/02/17 03:45:50;;;;;;;;;6.00;4.00;;;;;13.17;100.00;102247.78;5037337;28;74181;-78
2023/02/17 03:48:16;;;;;;;;;7.00;6.75;;;;;13.20;100.00;102254.69;5038300;28;45355;-77
2023/02/17 03:50:41;;;;;;;;;8.25;6.00;;;;;13.22;100.00;102249.44;5037106;28;63322;-77
2023/02/17 03:53:07;;;;;;;;;4.00;4.00;;;;;13.19;100.00;102245.13;5038201;28;45529;-77
2023/02/17 03:55:32;;;;;;;;;7.00;6.00;;;;;13.22;100.00;102257.28;5038336;28;46059;-77
2023/02/17 03:57:57;;;;;;;;;9.00;4.00;;;;;13.22;100.00;102255.53;5037441;28;64060;-77
2023/02/17 04:00:23;;;;;;;;;6.25;4.50;;;;;13.25;100.00;102267.72;5037853;28;53553;-78
2023/02/17 04:02:49;;;;;;;;;2.00;2.00;;;;;13.25;100.00;102265.94;5038411;28;45786;-78
2023/02/17 04:05:14;;;;;;;;;7.00;4.00;;;;;13.24;100.00;102274.69;5037594;28;45669;-78
2023/02/17 04:07:40;;;;;;;;;11.25;6.00;;;;;13.13;100.00;102273.97;5037196;28;70783;-78
2023/02/17 04:10:06;;;;;;;;;6.50;3.00;;;;;13.02;100.00;102275.88;5037950;28;45404;-77
2023/02/17 04:12:31;;;;;;;;;6.25;4.00;;;;;12.89;100.00;102265.63;5036905;28;45386;-77
2023/02/17 04:14:57;;;;;;;;;3.75;2.75;;;;;12.89;100.00;102272.56;5037292;28;67791;-77
2023/02/17 04:17:22;;;;;;;;;8.25;4.25;;;;;12.88;100.00;102276.09;5036974;28;68993;-78
2023/02/17 04:19:47;;;;;;;;;7.25;4.00;;;;;12.90;100.00;102277.78;5037288;28;45492;-78
2023/02/17 04:22:13;;;;;;;;;6.00;3.50;;;;;12.94;100.00;102278.59;5037363;28;58098;-77
2023/02/17 04:24:38;;;;;;;;;6.50;3.00;;;;;12.98;100.00;102291.63;5037422;28;45547;-78
2023/02/17 04:27:04;;;;;;;;;3.25;3.00;;;;;13.00;100.00;102280.28;5037652;28;45402;-77
2023/02/17 04:29:30;;;;;;;;;3.50;3.50;;;;;13.02;100.00;102288.94;5019754;28;45534;-77
2023/02/17 04:31:56;;;;;;;;;6.50;3.00;;;;;13.04;100.00;102293.28;5037577;28;45451;-77
2023/02/17 04:34:21;;;;;;;;;6.75;5.50;;;;;13.05;100.00;102288.91;5036994;28;45928;-77
2023/02/17 04:36:47;;;;;;;;;8.00;3.50;;;;;13.07;100.00;102290.59;5002522;28;55360;-77
2023/02/17 04:39:12;;;;;;;;;1.50;1.50;;;;;13.13;100.00;102297.50;5036793;28;60121;-78
2023/02/17 04:41:37;;;;;;;;;3.75;2.25;;;;;13.14;100.00;102292.25;5036494;28;63793;-77
2023/02/17 04:44:03;;;;;;;;;8.25;3.00;;;;;13.15;100.00;102295.75;5036691;28;59104;-77
2023/02/17 04:46:28;;;;;;;;;7.75;3.25;;;;;13.12;100.00;102290.56;5036377;28;66256;-77
2023/02/17 04:48:53;;;;;;;;;7.25;4.00;;;;;13.05;100.00;102289.78;5041358;28;45233;-77
2023/02/17 04:51:19;;;;;;;;;2.50;2.50;;;;;13.00;100.00;102295.94;5043811;28;45338;-76
2023/02/17 04:53:44;;;;;;;;;7.75;3.50;;;;;12.98;100.00;102302.09;5036889;28;66505;-77
2023/02/17 04:56:10;;;;;;;;;6.50;3.75;;;;;13.01;100.00;102293.31;5036945;28;65632;-77
2023/02/17 04:58:35;;;;;;;;;3.25;3.00;;;;;13.03;100.00;102301.16;5037072;28;58358;-77
2023/02/17 05:01:00;;;;;;;;;3.50;3.00;;;;;13.01;100.00;102298.53;5037405;28;45367;-77
2023/02/17 05:03:26;;;;;;;;;5.00;2.25;;;;;13.04;100.00;102290.69;5036516;28;59581;-77
2023/02/17 05:05:51;;;;;;;;;4.00;2.00;;;;;13.02;100.00;102299.41;5036502;28;71693;-77
2023/02/17 05:08:16;;;;;;;;;3.00;3.00;;;;;13.05;100.00;102296.75;5036764;28;64340;-77
2023/02/17 05:10:42;;;;;;;;;2.25;1.75;;;;;13.01;100.00;102288.09;5036399;28;66157;-76
2023/02/17 05:13:07;;;;;;;;;7.00;2.75;;;;;13.08;100.00;102307.19;5036196;28;71872;-76
2023/02/17 05:15:32;;;;;;;;;7.00;2.00;;;;;13.09;100.00;102307.16;5036676;28;58616;-76
2023/02/17 05:17:58;;;;;;;;;7.00;3.00;;;;;13.12;100.00;102301.00;5035892;28;61141;-77
2023/02/17 05:20:23;;;;;;;;;4.25;3.25;;;;;13.14;100.00;102307.09;5036956;28;53347;-77
2023/02/17 05:22:48;;;;;;;;;3.00;3.00;;;;;13.13;100.00;102311.47;5035993;28;71478;-77
2023/02/17 05:25:14;;;;;;;;;6.50;3.25;;;;;13.11;100.00;102308.00;5036804;28;45546;-77
2023/02/17 05:27:39;;;;;;;;;6.50;4.00;;;;;13.14;100.00;102307.09;5036437;28;53894;-77
2023/02/17 05:30:05;;;;;;;;;4.50;3.00;;;;;13.17;100.00;102307.06;5035921;28;67738;-77
2023/02/17 05:32:30;;;;;;;;;3.75;2.75;;;;;13.20;100.00;102308.75;5036422;28;45567;-77
2023/02/17 05:34:56;;;;;;;;;7.25;3.50;;;;;13.17;100.00;102300.06;5035914;28;65406;-76
2023/02/17 05:37:21;;;;;;;;;3.00;2.25;;;;;13.23;100.00;102303.47;5035929;28;61064;-77
2023/02/17 05:39:46;;;;;;;;;4.25;2.50;;;;;13.22;100.00;102301.72;5036813;28;45491;-77
2023/02/17 05:42:12;;;;;;;;;2.25;2.25;;;;;13.24;100.00;102311.31;5036424;28;45381;-77
2023/02/17 05:44:37;;;;;;;;;5.50;2.75;;;;;13.27;100.00;102313.84;5036133;28;45332;-77
2023/02/17 05:47:03;;;;;;;;;6.75;4.00;;;;;13.28;100.00;102318.22;5035754;28;56900;-77
2023/02/17 05:49:28;;;;;;;;;6.00;2.00;;;;;13.23;100.00;102309.56;5036014;28;52685;-77
2023/02/17 05:51:53;;;;;;;;;5.50;3.75;;;;;13.31;100.00;102318.16;5036147;28;45376;-77
2023/02/17 05:54:19;;;;;;;;;3.25;2.00;;;;;13.32;100.00;102324.28;5035344;28;69253;-77
2023/02/17 05:56:44;;;;;;;;;6.00;3.00;;;;;13.28;100.00;102322.56;5036315;28;45450;-77
2023/02/17 05:59:09;;;;;;;;;3.50;2.00;;;;;13.25;100.00;102320.84;5035315;28;66751;-77
2023/02/17 06:01:35;;;;;;;;;7.75;2.25;;;;;13.24;100.00;102316.53;5034771;28;71648;-77
2023/02/17 06:04:00;;;;;;;;;7.00;4.00;;;;;13.28;100.00;102319.94;5034999;28;69891;-77
2023/02/17 06:06:25;;;;;;;;;6.00;3.00;;;;;13.24;100.00;102316.53;5035407;28;63992;-77
2023/02/17 06:08:51;;;;;;;;;5.00;4.00;;;;;13.28;100.00;102323.44;5035521;28;60085;-77
2023/02/17 06:11:16;;;;;;;;;3.00;2.00;;;;;13.30;100.00;102324.31;5035700;28;46278;-77
2023/02/17 06:13:41;;;;;;;;;3.00;3.00;;;;;13.33;100.00;102321.66;5035762;28;48824;-77
2023/02/17 06:16:07;;;;;;;;;3.50;3.00;;;;;13.34;100.00;102328.59;5034782;28;66923;-77
2023/02/17 06:18:32;;;;;;;;;2.00;2.00;;;;;13.34;100.00;102332.97;5035854;28;46042;-77
2023/02/17 06:20:58;;;;;;;;;4.00;2.00;;;;;13.31;100.00;102336.47;5035870;28;45324;-78
2023/02/17 06:23:24;;;;;;;;;6.00;2.75;;;;;13.29;100.00;102340.84;5035550;28;45432;-79
2023/02/17 06:25:50;;;;;;;;;3.50;2.75;;;;;13.30;100.00;102355.69;5018016;28;45391;-78
2023/02/17 06:28:15;;;;;;;;;2.00;2.00;;;;;13.29;100.00;102351.31;5035108;28;60115;-79
2023/02/17 06:30:41;;;;;;;;;4.00;3.00;;;;;13.27;100.00;102354.84;5035194;28;45374;-79
2023/02/17 06:33:06;;;;;;;;;2.50;2.50;;;;;13.25;100.00;102348.78;5034636;28;68415;-80
2023/02/17 06:35:31;;;;;;;;;4.00;2.50;;;;;13.23;100.00;102361.00;5037640;28;46784;-79
2023/02/17 06:37:57;;;;;;;;;7.00;4.00;;;;;13.15;100.00;102354.13;5038922;28;45368;-79
2023/02/17 06:40:22;;;;;;;;;7.00;3.00;;;;;13.17;100.00;102351.50;5041805;28;70908;-80
2023/02/17 06:42:48;;;;;;;;;3.75;2.00;;;;;13.13;100.00;102355.91;5053966;28;44703;-80
2023/02/17 06:45:14;;;;;;;;;3.00;3.00;;;;;13.16;100.00;102371.53;5040418;28;65454;-79
2023/02/17 06:47:39;;;;;;;;;3.00;3.00;;;;;13.15;100.00;102368.97;5039560;28;45341;-80
2023/02/17 06:50:05;;;;;;;;;1.75;1.75;;;;;13.20;100.00;102384.56;5038276;28;69200;-80
2023/02/17 06:52:30;;;;;;;;;3.50;3.00;;;;;13.18;100.00;102384.59;5021433;28;45715;-80
2023/02/17 06:54:56;;;;;;;;;2.00;2.00;;;;;13.14;100.00;102385.53;5021157;28;45317;-80
2023/02/17 06:57:21;;;;;;;;;5.00;5.00;;;;;13.09;100.00;102376.88;5038570;28;58168;-81
2023/02/17 06:59:46;;;;;;;;;0.50;0.25;;;;;13.14;100.00;102388.13;5038651;28;45406;-79
2023/02/17 07:02:13;;;;;;;;;6.00;3.00;;;;;13.16;100.00;102396.81;5038069;28;63931;-81
2023/02/17 07:04:39;;;;;;;;;6.00;5.00;;;;;13.13;100.00;102391.63;5020980;28;45385;-81
2023/02/17 07:07:04;;;;;;;;;4.75;2.50;;;;;13.16;100.00;102395.06;5021124;28;45451;-80
2023/02/17 07:09:30;;;;;;;;;4.00;3.00;;;;;13.11;100.00;102383.81;5037916;28;65641;-80
2023/02/17 07:11:56;;;;;;;;;2.00;1.75;;;;;13.14;100.00;102389.00;5021288;28;45557;-80
2023/02/17 07:14:22;;;;;;;;;4.50;2.75;;;;;13.16;100.00;102395.06;5038408;28;45432;-79
2023/02/17 07:16:47;;;;;;;;;5.75;2.50;;;;;13.21;100.00;102397.63;5038595;28;45353;-80
2023/02/17 07:19:13;;;;;;;;;3.25;3.00;;;;;13.20;100.00;102403.72;5038465;28;46395;-80
2023/02/17 07:21:38;;;;;;;;;3.00;3.00;;;;;13.22;100.00;102415.03;5020550;28;45455;-80
2023/02/17 07:24:03;;;;;;;;;2.50;2.50;;;;;13.21;100.00;102409.84;5020085;28;65427;-80
2023/02/17 07:26:29;;;;;;;;;6.75;3.00;;;;;13.18;100.00;102405.50;5038553;28;45394;-79
2023/02/17 07:28:54;;;;;;;;;3.50;2.00;;;;;13.23;100.00;102413.31;5037877;28;46152;-79
2023/02/17 07:31:20;;;;;;;;;2.50;1.75;;;;;13.26;100.00;102408.91;5038488;28;45554;-83
2023/02/17 07:33:46;;;;;;;;;3.00;2.00;;;;;13.25;100.00;102408.91;5038681;28;45625;-83
2023/02/17 07:36:14;;;;;;;;;6.50;3.00;;;;;13.29;100.00;102415.81;5014526;28;45403;-83
2023/02/17 07:38:40;;;;;;;;;3.00;2.00;;;;;13.26;100.00;102395.81;5031343;28;46395;-82
2023/02/17 07:41:07;;;;;;;;;4.50;2.00;;;;;13.29;100.00;102408.84;5038004;28;45804;-82
2023/02/17 07:43:33;;;;;;;;;7.00;3.00;;;;;13.31;100.00;102416.69;5026032;28;45213;-81
2023/02/17 07:45:58;;;;;;;;;7.00;4.00;;;;;13.31;100.00;102420.16;4999963;28;45409;-81
2023/02/17 07:48:23;;;;;;;;;5.00;2.00;;;;;13.28;100.00;102414.09;5018512;28;68257;-82
2023/02/17 07:50:49;;;;;;;;;2.50;2.00;;;;;13.31;100.00;102416.69;5019925;28;45353;-82
2023/02/17 07:53:14;;;;;;;;;5.50;3.00;;;;;13.39;100.00;102427.94;5036973;28;55872;-82
2023/02/17 07:55:39;;;;;;;;;3.25;2.00;;;;;13.31;100.00;102411.47;5027500;28;66080;-80
2023/02/17 07:58:05;;;;;;;;;4.00;2.00;;;;;13.40;100.00;102419.19;5037333;28;47009;-83
2023/02/17 08:00:30;;;;;;;;;7.00;3.75;;;;;13.45;100.00;102419.13;5020047;28;45415;-79
2023/02/17 08:02:55;;;;;;;;;3.00;2.75;;;;;13.47;100.00;102423.44;5037979;28;45450;-80
2023/02/17 08:05:21;;;;;;;;;5.25;3.25;;;;;13.49;100.00;102426.91;5037107;28;50612;-80
2023/02/17 08:07:46;;;;;;;;;6.75;3.75;;;;;13.49;100.00;102424.28;5037480;28;45984;-81
2023/02/17 08:15:40;;;;;;;;;4.00;2.00;;;;;13.60;100.00;102441.59;5027065;28;45326;-79
2023/02/17 08:18:05;;;;;;;;;4.00;3.00;;;;;13.60;100.00;102442.47;5037181;28;46558;-80
2023/02/17 08:20:31;;;;;;;;;2.00;2.00;;;;;13.62;100.00;102437.22;5019289;28;45399;-80
2023/02/17 08:22:56;;;;;;;;;0.00;0.00;;;;;13.61;100.00;102441.56;5037506;28;45604;-80
2023/02/17 08:25:21;;;;;;;;;3.50;3.00;;;;;13.67;100.00;102444.09;5030269;28;65412;-80
2023/02/17 08:27:47;;;;;;;;;4.00;3.25;;;;;13.68;100.00;102448.44;5034255;28;70296;-80
2023/02/17 08:30:12;;;;;;;;;3.50;2.75;;;;;13.67;100.00;102458.91;5038497;28;63227;-80
2023/02/17 08:32:37;;;;;;;;;2.00;2.00;;;;;13.67;100.00;102451.94;5040902;28;45325;-80
2023/02/17 08:35:04;;;;;;;;;3.00;3.00;;;;;13.72;100.00;102452.75;5040834;28;48811;-81
2023/02/17 08:37:30;;;;;;;;;3.25;2.25;;;;;13.73;100.00;102445.75;5041254;28;45402;-80
2023/02/17 08:39:57;;;;;;;;;2.00;2.00;;;;;13.74;100.00;102442.25;5036176;28;45803;-80
2023/02/17 08:42:24;;;;;;;;;1.50;0.75;;;;;13.76;100.00;102448.31;5033175;28;45467;-80
2023/02/17 08:44:50;;;;;;;;;6.00;2.00;;;;;13.69;100.00;102444.94;5018525;28;45505;-81
2023/02/17 08:47:15;;;;;;;;;5.50;2.00;;;;;13.75;100.00;102444.84;5020302;28;55832;-79
2023/02/17 08:49:40;;;;;;;;;6.50;2.00;;;;;13.89;100.00;102452.50;5035230;28;46989;-78
2023/02/17 08:52:06;;;;;;;;;4.00;3.00;;;;;13.92;100.00;102462.91;5032282;28;45386;-78
2023/02/17 08:54:31;;;;;;;;;3.25;1.00;;;;;13.90;100.00;102456.81;5034390;28;45375;-80
2023/02/17 08:56:57;;;;;;;;;4.25;2.00;;;;;13.88;100.00;102444.66;4995094;28;47201;-80
2023/02/17 08:59:22;;;;;;;;;2.75;2.00;;;;;13.97;100.00;102452.38;5034669;28;45395;-81
2023/02/17 09:01:48;;;;;;;;;3.00;1.25;;;;;14.01;100.00;102453.19;5031664;28;54333;-80
2023/02/17 09:04:14;;;;;;;;;8.50;2.00;;;;;14.05;100.00;102458.34;5032446;28;65814;-80
2023/02/17 09:06:42;;;;;;;;;5.25;2.00;;;;;13.97;100.00;102448.88;5042431;28;46505;-79
2023/02/17 09:09:10;;;;;;;;;2.00;1.50;;;;;13.99;100.00;102460.22;5037237;28;45726;-79
2023/02/17 09:11:35;;;;;;;;;4.00;3.00;;;;;14.01;100.00;102461.06;5035076;28;45529;-80
2023/02/17 09:14:01;;;;;;;;;1.50;1.50;;;;;13.96;100.00;102455.88;5031068;28;63664;-77
2023/02/17 09:16:26;;;;;;;;;3.25;2.00;;;;;14.09;100.00;102462.63;5035033;28;46665;-79
2023/02/17 09:18:52;;;;;;;;;3.00;2.25;;;;;14.19;100.00;102458.13;5037464;28;45458;-79
2023/02/17 09:21:18;;;;;;;;;2.00;1.00;;;;;14.26;100.00;102465.00;5023500;28;45472;-79
2023/02/17 09:23:44;;;;;;;;;0.00;0.00;;;;;14.30;100.00;102460.53;5038267;28;45494;-80
2023/02/17 09:26:11;;;;;;;;;1.50;1.00;;;;;14.42;100.00;102475.22;5031604;28;63415;-78
2023/02/17 09:28:37;;;;;;;;;2.75;1.00;;;;;14.49;100.00;102459.34;5023078;28;45604;-79
2023/02/17 09:31:14;;;;;;;;;1.00;1.00;;;;;14.60;100.00;102460.94;5042843;28;45339;-80
2023/02/17 09:33:41;;;;;;;;;4.75;1.00;;;;;14.61;100.00;102449.56;5008514;28;45558;-79
2023/02/17 09:36:08;;;;;;;;;3.25;1.50;;;;;14.83;100.00;102469.22;5035606;28;45387;-78
2023/02/17 09:38:33;;;;;;;;;3.50;3.00;;;;;14.89;100.00;102458.66;5035205;28;45736;-79
2023/02/17 09:41:17;;;;;;;;;3.25;2.75;;;;;15.05;100.00;102460.97;5035411;28;45413;-81
2023/02/17 09:43:44;;;;;;;;;2.00;2.00;;;;;15.15;100.00;102470.34;5009628;28;45507;-79
2023/02/17 09:46:16;;;;;;;;;4.00;1.25;;;;;15.11;100.00;102466.06;5017596;28;46474;-80
2023/02/17 09:48:43;;;;;;;;;3.75;2.00;;;;;15.09;100.00;102454.75;5034905;28;46032;-80
2023/02/17 09:51:21;;;;;;;;;1.75;1.00;;;;;15.11;100.00;102473.94;5015538;28;67199;-81
2023/02/17 09:54:04;;;;;;;;;2.25;1.00;;;;;15.04;100.00;102469.69;5026756;28;45646;-81
2023/02/17 09:56:34;;;;;;;;;1.00;1.00;;;;;14.98;100.00;102473.31;5017307;28;46273;-80
2023/02/17 09:59:05;;;;;;;;;2.00;1.25;;;;;14.93;100.00;102461.19;5029051;28;45430;-80
2023/02/17 10:01:32;;;;;;;;;1.00;1.00;;;;;14.90;100.00;102460.34;5010741;28;45544;-79
2023/02/17 10:04:09;;;;;;;;;1.00;1.00;;;;;14.90;100.00;102464.75;5010196;28;45412;-80
2023/02/17 10:06:39;;;;;;;;;2.50;1.25;;;;;14.96;100.00;102484.75;5016196;28;45580;-80
2023/02/17 10:09:23;;;;;;;;;0.00;0.00;;;;;14.86;100.00;102471.81;5003477;28;45821;-79
2023/02/17 10:12:09;;;;;;;;;2.50;1.00;;;;;14.89;100.00;102479.63;5016555;28;45431;-80
2023/02/17 10:14:36;;;;;;;;;2.00;1.00;;;;;14.95;100.00;102490.88;5016919;28;45578;-79
2023/02/17 10:17:23;;;;;;;;;1.25;1.00;;;;;14.93;100.00;102482.16;5035286;28;45513;-79
2023/02/17 10:20:07;;;;;;;;;1.00;1.00;;;;;15.07;100.00;102498.50;5019973;28;45498;-79
2023/02/17 10:22:33;;;;;;;;;0.50;0.25;;;;;15.12;100.00;102493.16;5025116;28;45424;-79
2023/02/17 10:25:00;;;;;;;;;2.00;1.00;;;;;15.06;100.00;102489.78;5034839;28;45472;-79
2023/02/17 10:27:36;;;;;;;;;3.00;1.00;;;;;15.10;100.00;102486.19;5016951;28;45402;-79
2023/02/17 10:30:32;;;;;;;;;2.00;0.50;;;;;15.18;100.00;102490.44;5017469;28;45702;-79
2023/02/17 10:33:03;;;;;;;;;1.25;1.25;;;;;15.11;100.00;102502.78;4998621;28;45467;-79
2023/02/17 10:35:42;;;;;;;;;1.00;1.00;;;;;15.04;100.00;102481.09;5015163;28;45511;-79
2023/02/17 10:38:33;;;;;;;;;2.75;1.75;;;;;15.09;100.00;102486.22;5028318;28;45434;-81
2023/02/17 10:40:59;;;;;;;;;1.25;1.00;;;;;15.17;100.00;102486.06;5017519;28;45867;-79
2023/02/17 10:43:28;;;;;;;;;2.00;1.00;;;;;15.20;100.00;102496.50;5023712;28;45497;-79
2023/02/17 10:45:54;;;;;;;;;1.00;0.00;;;;;15.23;100.00;102493.78;5000621;28;45433;-79
2023/02/17 10:48:29;;;;;;;;;1.00;1.00;;;;;15.23;100.00;102489.44;5033538;28;71928;-80
2023/02/17 10:50:58;;;;;;;;;2.00;1.00;;;;;15.22;100.00;102473.72;5031341;28;45702;-79
2023/02/17 10:53:29;;;;;;;;;1.00;1.00;;;;;15.35;100.00;102490.94;5016808;28;45418;-80
2023/02/17 10:55:57;;;;;;;;;1.25;1.00;;;;;15.43;100.00;102502.16;5016575;28;45549;-79
2023/02/17 10:58:32;;;;;;;;;1.00;0.50;;;;;15.49;100.00;102495.91;5011405;28;46487;-80
2023/02/17 11:00:57;;;;;;;;;1.00;0.00;;;;;15.53;100.00;102478.34;5001326;28;45761;-79
2023/02/17 11:03:26;;;;;;;;;1.00;1.00;;;;;15.63;100.00;102485.94;5016206;28;45414;-79
2023/02/17 11:05:53;;;;;;;;;2.00;1.00;;;;;15.72;100.00;102491.91;5016258;28;45438;-79
2023/02/17 11:08:36;;;;;;;;;1.00;1.00;;;;;15.84;100.00;102496.88;5034190;28;46288;-79
2023/02/17 11:11:13;;;;;;;;;1.25;1.25;;;;;15.85;100.00;102493.38;5019515;28;45369;-79
2023/02/17 11:14:00;;;;;;;;;2.00;1.00;;;;;15.91;100.00;102505.50;5034182;28;45757;-78
2023/02/17 11:16:43;;;;;;;;;1.00;1.00;;;;;15.89;100.00;102508.16;5020738;28;46658;-78
2023/02/17 11:19:29;;;;;;;;;3.25;1.00;;;;;15.94;100.00;102508.06;5018747;28;46579;-79
2023/02/17 11:21:57;;;;;;;;;1.00;1.00;;;;;15.96;100.00;102508.88;5036485;28;45379;-79
2023/02/17 11:24:23;;;;;;;;;1.00;1.00;;;;;15.91;100.00;102492.38;5037604;28;45368;-79
2023/02/17 11:27:08;;;;;;;;;1.50;1.00;;;;;16.01;100.00;102504.38;5037252;28;45533;-79